KBDR/BDR METAR and TAF weather

Enter ICAO airport designator
Station Type Date Time Source
KBDR METAR 2020/10/20 17:52 UTC NOAA

KBDR 201752Z 21004KT 10SM FEW020 OVC028 19/16 A3023 RMK AO2 SLP237 T01890161 10194 20150 58008


Station Type Date Time Source
KBDR Decoded METAR 2020/10/20 17:52 UTC NOAA

SIKORSKY MEMORIAL AIRPORT, CT, United States (KBDR) 41-10N 073-08W 7M
Oct 20, 2020 - 01:52 PM EDT / 2020.10.20 1752 UTC
Wind: from the SSW (210 degrees) at 5 MPH (4 KT):0
Visibility: 10 mile(s):0
Sky conditions: overcast
Temperature: 66.0 F (18.9 C)
Dew Point: 61.0 F (16.1 C)
Relative Humidity: 83%
Pressure (altimeter): 30.23 in. Hg (1023 hPa)
Pressure tendency: 0.02 inches (0.8 hPa) lower than three hours ago
ob: KBDR 201752Z 21004KT 10SM FEW020 OVC028 19/16 A3023 RMK AO2 SLP237 T01890161 10194 20150 58008
cycle: 18

Station Type Date Time Source
KBDR TAF 2020/10/20 18:40 UTC NOAA

TAF KBDR 201737Z 2018/2118 15005KT P6SM OVC015
FM202200 VRB03KT 4SM BR OVC010
FM210000 VRB02KT 3SM BR BKN006 OVC010
FM210600 VRB02KT 1SM BR OVC004
FM211500 18005KT 5SM BR OVC015

Example: see airport list